Kissimmee Gateway Airport

About
Name: Kissimmee Gateway Airport
Identifier:  ISM/KISM
Serves:  Greater Orlando
Owner:  City of Kissimmee [1]
Public/Private:  Public
Local Time:  17. Sep 20:42 EDT
Description: Kissimmee Gateway Airport, formerly known as Kissimmee Municipal Airport, is a public airport in Kissimmee, a city in Osceola County, Florida, United States. The airport is located 16 nautical miles southwest of the central business district of Orlando. It is owned and operated by the City of Kissimmee.
Source: Wikipedia
Location
Runways
Identifier Length (m/ft) Surface
6/24 5,001/5,001 Asphalt
15/33 6,001/6,001 Asphalt
Statistics
Flights per Day:
0 flights
Distance: 288km (179mi)
Flights delayed:
0% (0 flights per day delayed)
Delay Average: 71 minutes
Current Weather
 31 C (Humidity: 43%)
  9kt (16km/h / 10mph) from 50°
  16km (10 mi.)
 
 METAR KISM 172356Z 05009KT 10SM CLR 31/17 A2993 RMK AO2 SLP135 T03060167 10350 20306 53007

Current Delays

Departures
N/A
Arrivals
N/A

Destinations

Top Destinations
Airport Flights
per week
Seats
per week
  Miami (OPF) 0 - 0 0
  Thomasville (TVI) 0 - 0 0

Airlines & Planes

Top Airlines
Airline Flights
per Day
Seats
per Day
Gama Aviation 0 -
Top Plane Types
Model Flights Seats
Beech B300 Super King Air 350 0.1/day - 0